Organ, New Mexico
Current Conditions -  °F | °C
As of 9:15 AM on Sunday 21 Dec 2014 (Local Time) from KLRU Reporting Station
Clear Clear  
Wind Chill: 42°   Ceiling: Unl
Heat Index: 42°   Visibility: 10mi
Dew Point: 32°   Wind: 0mph
Humidity: 68%   Direction: NA
Pressure: 30.08"   Gusts: NA
Location:  32.43°N, 106.6°W
Report Text: KLRU 211615Z AUTO 00000KT 10SM CLR 05/00 A3008 RMK AO2 T00531002
Loading
Personal Weather Stations






























Interactive Weather Map New forecast layout! Learn more

10-Day Weather Forecast

Advertisements
Track Severe Weather on mobile